sensor_id;sensor_type;location;lat;lon;timestamp;temperature;humidity
17381;DHT22;8808;52.478;13.378;2023-08-07T04:13:43;15.40;99.90
17381;DHT22;8808;52.478;13.378;2023-08-07T04:16:11;15.50;99.90
17381;DHT22;8808;52.478;13.378;2023-08-07T04:18:38;15.50;99.90
17381;DHT22;8808;52.478;13.378;2023-08-07T04:21:05;15.60;99.90
17381;DHT22;8808;52.478;13.378;2023-08-07T04:23:32;15.60;99.90
17381;DHT22;8808;52.478;13.378;2023-08-07T04:25:59;15.60;99.90
17381;DHT22;8808;52.478;13.378;2023-08-07T04:28:28;15.60;99.90
17381;DHT22;8808;52.478;13.378;2023-08-07T04:30:55;15.60;99.90
17381;DHT22;8808;52.478;13.378;2023-08-07T04:35:50;15.60;99.90
17381;DHT22;8808;52.478;13.378;2023-08-07T04:38:17;15.70;99.90
17381;DHT22;8808;52.478;13.378;2023-08-07T04:40:45;15.70;99.90
17381;DHT22;8808;52.478;13.378;2023-08-07T04:43:13;15.70;99.90
17381;DHT22;8808;52.478;13.378;2023-08-07T04:45:40;15.80;99.90
17381;DHT22;8808;52.478;13.378;2023-08-07T04:48:07;15.80;99.90
17381;DHT22;8808;52.478;13.378;2023-08-07T04:50:36;15.80;99.90
17381;DHT22;8808;52.478;13.378;2023-08-07T04:53:04;15.70;99.90
17381;DHT22;8808;52.478;13.378;2023-08-07T04:55:31;15.70;99.90
17381;DHT22;8808;52.478;13.378;2023-08-07T04:57:59;15.90;99.90
17381;DHT22;8808;52.478;13.378;2023-08-07T05:00:28;15.90;99.90
17381;DHT22;8808;52.478;13.378;2023-08-07T05:02:55;15.90;99.90
17381;DHT22;8808;52.478;13.378;2023-08-07T05:05:21;16.00;99.90
17381;DHT22;8808;52.478;13.378;2023-08-07T05:07:50;15.90;99.90
17381;DHT22;8808;52.478;13.378;2023-08-07T05:10:17;15.80;99.90
17381;DHT22;8808;52.478;13.378;2023-08-07T05:12:44;15.80;99.90
17381;DHT22;8808;52.478;13.378;2023-08-07T05:15:11;15.80;99.90
17381;DHT22;8808;52.478;13.378;2023-08-07T05:17:38;15.80;99.90
17381;DHT22;8808;52.478;13.378;2023-08-07T05:20:06;15.80;99.90
17381;DHT22;8808;52.478;13.378;2023-08-07T05:22:34;15.80;99.90
17381;DHT22;8808;52.478;13.378;2023-08-07T05:25:03;15.70;99.90
17381;DHT22;8808;52.478;13.378;2023-08-07T05:27:30;15.70;99.90
17381;DHT22;8808;52.478;13.378;2023-08-07T05:29:57;15.80;99.90
17381;DHT22;8808;52.478;13.378;2023-08-07T05:32:24;15.80;99.90
17381;DHT22;8808;52.478;13.378;2023-08-07T05:34:51;15.80;99.90
17381;DHT22;8808;52.478;13.378;2023-08-07T05:37:18;15.80;99.90
17381;DHT22;8808;52.478;13.378;2023-08-07T05:39:46;15.80;99.90
17381;DHT22;8808;52.478;13.378;2023-08-07T05:42:14;15.80;99.90
17381;DHT22;8808;52.478;13.378;2023-08-07T05:44:41;15.80;99.90
17381;DHT22;8808;52.478;13.378;2023-08-07T05:47:08;15.80;99.90
17381;DHT22;8808;52.478;13.378;2023-08-07T05:49:35;15.90;99.90
17381;DHT22;8808;52.478;13.378;2023-08-07T05:52:02;15.90;99.90
17381;DHT22;8808;52.478;13.378;2023-08-07T05:54:29;15.90;99.90
17381;DHT22;8808;52.478;13.378;2023-08-07T05:56:56;15.90;99.90
17381;DHT22;8808;52.478;13.378;2023-08-07T05:59:25;16.00;99.90
17381;DHT22;8808;52.478;13.378;2023-08-07T06:01:53;16.10;99.90
17381;DHT22;8808;52.478;13.378;2023-08-07T06:04:21;16.20;99.90
17381;DHT22;8808;52.478;13.378;2023-08-07T06:06:48;16.30;99.90
17381;DHT22;8808;52.478;13.378;2023-08-07T06:09:15;16.30;99.90
17381;DHT22;8808;52.478;13.378;2023-08-07T06:11:42;16.40;99.90
17381;DHT22;8808;52.478;13.378;2023-08-07T06:14:09;16.50;99.90
17381;DHT22;8808;52.478;13.378;2023-08-07T06:16:37;16.40;99.90
17381;DHT22;8808;52.478;13.378;2023-08-07T06:19:04;16.40;99.90
17381;DHT22;8808;52.478;13.378;2023-08-07T06:21:31;16.50;99.90
17381;DHT22;8808;52.478;13.378;2023-08-07T06:23:58;16.40;99.90
17381;DHT22;8808;52.478;13.378;2023-08-07T06:26:25;16.40;99.90
17381;DHT22;8808;52.478;13.378;2023-08-07T06:28:52;16.40;99.90
17381;DHT22;8808;52.478;13.378;2023-08-07T06:31:19;16.60;99.90
17381;DHT22;8808;52.478;13.378;2023-08-07T06:33:49;16.60;99.90
17381;DHT22;8808;52.478;13.378;2023-08-07T06:36:16;16.60;99.90
17381;DHT22;8808;52.478;13.378;2023-08-07T06:38:43;16.60;99.90
17381;DHT22;8808;52.478;13.378;2023-08-07T06:41:10;16.70;99.90
17381;DHT22;8808;52.478;13.378;2023-08-07T06:43:37;16.70;99.90
17381;DHT22;8808;52.478;13.378;2023-08-07T06:46:04;16.80;99.90
17381;DHT22;8808;52.478;13.378;2023-08-07T06:48:31;16.80;99.90
17381;DHT22;8808;52.478;13.378;2023-08-07T06:50:59;17.00;99.90
17381;DHT22;8808;52.478;13.378;2023-08-07T06:53:26;16.90;99.90
17381;DHT22;8808;52.478;13.378;2023-08-07T06:55:53;16.90;99.90
17381;DHT22;8808;52.478;13.378;2023-08-07T06:58:20;17.10;99.90
17381;DHT22;8808;52.478;13.378;2023-08-07T07:00:47;17.00;99.90
17381;DHT22;8808;52.478;13.378;2023-08-07T07:03:14;17.30;99.90
17381;DHT22;8808;52.478;13.378;2023-08-07T07:05:41;17.20;99.90
17381;DHT22;8808;52.478;13.378;2023-08-07T07:08:10;17.20;99.90
17381;DHT22;8808;52.478;13.378;2023-08-07T07:10:37;17.20;99.90
17381;DHT22;8808;52.478;13.378;2023-08-07T07:13:04;17.50;99.90
17381;DHT22;8808;52.478;13.378;2023-08-07T07:15:33;17.30;99.90
17381;DHT22;8808;52.478;13.378;2023-08-07T07:18:01;17.40;99.90
17381;DHT22;8808;52.478;13.378;2023-08-07T07:20:27;17.50;99.90
17381;DHT22;8808;52.478;13.378;2023-08-07T07:22:54;17.50;99.90
17381;DHT22;8808;52.478;13.378;2023-08-07T07:25:23;17.40;99.90
17381;DHT22;8808;52.478;13.378;2023-08-07T07:27:50;17.50;99.90
17381;DHT22;8808;52.478;13.378;2023-08-07T07:30:17;17.70;99.90
17381;DHT22;8808;52.478;13.378;2023-08-07T07:32:44;17.70;99.90
17381;DHT22;8808;52.478;13.378;2023-08-07T07:35:10;17.70;99.90
17381;DHT22;8808;52.478;13.378;2023-08-07T07:37:37;17.60;99.90
17381;DHT22;8808;52.478;13.378;2023-08-07T07:40:05;17.70;99.90
17381;DHT22;8808;52.478;13.378;2023-08-07T07:42:34;17.70;99.90
17381;DHT22;8808;52.478;13.378;2023-08-07T07:45:01;17.90;99.90
17381;DHT22;8808;52.478;13.378;2023-08-07T07:47:28;17.70;99.90
17381;DHT22;8808;52.478;13.378;2023-08-07T07:50:05;17.70;99.90
17381;DHT22;8808;52.478;13.378;2023-08-07T07:52:33;17.60;99.90
17381;DHT22;8808;52.478;13.378;2023-08-07T07:55:00;17.70;99.90
17381;DHT22;8808;52.478;13.378;2023-08-07T07:57:27;17.80;99.90
17381;DHT22;8808;52.478;13.378;2023-08-07T07:59:55;17.70;99.90
17381;DHT22;8808;52.478;13.378;2023-08-07T08:02:22;17.80;99.90
17381;DHT22;8808;52.478;13.378;2023-08-07T08:04:50;17.80;99.90
17381;DHT22;8808;52.478;13.378;2023-08-07T08:07:18;18.00;99.90
17381;DHT22;8808;52.478;13.378;2023-08-07T08:09:45;18.00;99.90
17381;DHT22;8808;52.478;13.378;2023-08-07T08:12:12;17.90;99.90
17381;DHT22;8808;52.478;13.378;2023-08-07T08:14:39;18.00;99.90
17381;DHT22;8808;52.478;13.378;2023-08-07T08:17:08;18.10;99.90
17381;DHT22;8808;52.478;13.378;2023-08-07T08:19:35;18.00;99.90
17381;DHT22;8808;52.478;13.378;2023-08-07T08:22:02;17.90;99.90
17381;DHT22;8808;52.478;13.378;2023-08-07T08:24:29;17.90;99.90
17381;DHT22;8808;52.478;13.378;2023-08-07T08:26:57;18.00;99.90
17381;DHT22;8808;52.478;13.378;2023-08-07T08:29:24;18.00;99.90
17381;DHT22;8808;52.478;13.378;2023-08-07T08:31:52;17.80;99.90
17381;DHT22;8808;52.478;13.378;2023-08-07T08:34:21;17.80;99.90
17381;DHT22;8808;52.478;13.378;2023-08-07T08:36:48;17.80;99.90
17381;DHT22;8808;52.478;13.378;2023-08-07T08:39:15;18.10;99.90
17381;DHT22;8808;52.478;13.378;2023-08-07T08:41:46;18.10;99.90
17381;DHT22;8808;52.478;13.378;2023-08-07T08:44:14;18.10;99.90
17381;DHT22;8808;52.478;13.378;2023-08-07T08:46:42;18.20;99.90
17381;DHT22;8808;52.478;13.378;2023-08-07T08:49:10;18.10;99.90
17381;DHT22;8808;52.478;13.378;2023-08-07T08:51:39;18.40;99.90
17381;DHT22;8808;52.478;13.378;2023-08-07T08:54:06;18.40;99.90
17381;DHT22;8808;52.478;13.378;2023-08-07T08:56:33;18.40;99.90
17381;DHT22;8808;52.478;13.378;2023-08-07T08:59:01;18.30;99.90
17381;DHT22;8808;52.478;13.378;2023-08-07T09:01:29;18.40;99.90
17381;DHT22;8808;52.478;13.378;2023-08-07T09:03:57;18.50;99.90
17381;DHT22;8808;52.478;13.378;2023-08-07T09:06:26;18.50;99.90
17381;DHT22;8808;52.478;13.378;2023-08-07T09:08:56;18.50;99.90
17381;DHT22;8808;52.478;13.378;2023-08-07T09:11:24;18.70;99.90
17381;DHT22;8808;52.478;13.378;2023-08-07T09:13:53;18.80;99.90
17381;DHT22;8808;52.478;13.378;2023-08-07T09:16:22;18.90;99.90
17381;DHT22;8808;52.478;13.378;2023-08-07T09:18:50;18.70;99.90
17381;DHT22;8808;52.478;13.378;2023-08-07T09:21:20;18.50;99.90
17381;DHT22;8808;52.478;13.378;2023-08-07T09:23:47;18.20;99.90
17381;DHT22;8808;52.478;13.378;2023-08-07T09:26:21;18.10;99.90
17381;DHT22;8808;52.478;13.378;2023-08-07T09:28:51;18.10;99.90
17381;DHT22;8808;52.478;13.378;2023-08-07T09:31:18;18.10;99.90
17381;DHT22;8808;52.478;13.378;2023-08-07T09:33:47;18.20;99.90
17381;DHT22;8808;52.478;13.378;2023-08-07T09:36:14;18.40;99.90
17381;DHT22;8808;52.478;13.378;2023-08-07T09:38:42;18.50;99.90
17381;DHT22;8808;52.478;13.378;2023-08-07T09:41:09;18.50;99.90
17381;DHT22;8808;52.478;13.378;2023-08-07T09:43:38;18.30;99.90
17381;DHT22;8808;52.478;13.378;2023-08-07T09:46:05;18.40;99.90
17381;DHT22;8808;52.478;13.378;2023-08-07T09:48:39;18.60;99.90
17381;DHT22;8808;52.478;13.378;2023-08-07T09:51:06;18.60;99.90
17381;DHT22;8808;52.478;13.378;2023-08-07T09:53:33;18.50;99.90
17381;DHT22;8808;52.478;13.378;2023-08-07T09:56:00;18.50;99.90
17381;DHT22;8808;52.478;13.378;2023-08-07T09:58:28;18.60;99.90
17381;DHT22;8808;52.478;13.378;2023-08-07T10:00:58;18.70;99.90
17381;DHT22;8808;52.478;13.378;2023-08-07T10:03:26;18.70;99.90
17381;DHT22;8808;52.478;13.378;2023-08-07T10:05:53;18.90;99.90
17381;DHT22;8808;52.478;13.378;2023-08-07T10:08:21;19.00;99.90
17381;DHT22;8808;52.478;13.378;2023-08-07T10:10:48;18.90;99.90
17381;DHT22;8808;52.478;13.378;2023-08-07T10:13:15;19.00;99.90
17381;DHT22;8808;52.478;13.378;2023-08-07T10:15:43;19.00;99.90
17381;DHT22;8808;52.478;13.378;2023-08-07T10:18:11;18.90;99.90
17381;DHT22;8808;52.478;13.378;2023-08-07T10:20:39;19.00;99.90
17381;DHT22;8808;52.478;13.378;2023-08-07T10:23:09;19.20;99.90
17381;DHT22;8808;52.478;13.378;2023-08-07T10:25:39;19.00;99.90
17381;DHT22;8808;52.478;13.378;2023-08-07T10:28:10;19.00;99.90
17381;DHT22;8808;52.478;13.378;2023-08-07T10:30:38;19.10;99.90
17381;DHT22;8808;52.478;13.378;2023-08-07T10:33:08;19.10;99.90
17381;DHT22;8808;52.478;13.378;2023-08-07T10:35:37;19.30;99.90
17381;DHT22;8808;52.478;13.378;2023-08-07T10:38:11;19.10;99.90
17381;DHT22;8808;52.478;13.378;2023-08-07T10:40:59;19.20;99.90
17381;DHT22;8808;52.478;13.378;2023-08-07T10:43:26;19.10;99.90
17381;DHT22;8808;52.478;13.378;2023-08-07T10:45:54;19.30;99.90
17381;DHT22;8808;52.478;13.378;2023-08-07T10:48:21;19.10;99.90
17381;DHT22;8808;52.478;13.378;2023-08-07T10:51:03;19.00;99.90
17381;DHT22;8808;52.478;13.378;2023-08-07T10:53:32;19.00;99.90
17381;DHT22;8808;52.478;13.378;2023-08-07T10:56:02;19.20;99.90
17381;DHT22;8808;52.478;13.378;2023-08-07T10:58:30;19.10;99.90
17381;DHT22;8808;52.478;13.378;2023-08-07T11:01:21;19.10;99.90
17381;DHT22;8808;52.478;13.378;2023-08-07T11:03:52;19.20;99.90
17381;DHT22;8808;52.478;13.378;2023-08-07T11:06:23;19.20;99.90
17381;DHT22;8808;52.478;13.378;2023-08-07T11:08:52;19.20;99.90
17381;DHT22;8808;52.478;13.378;2023-08-07T11:11:19;19.00;99.90
17381;DHT22;8808;52.478;13.378;2023-08-07T11:13:46;18.90;99.90
17381;DHT22;8808;52.478;13.378;2023-08-07T11:16:13;18.80;99.90
17381;DHT22;8808;52.478;13.378;2023-08-07T11:18:41;18.90;99.90
17381;DHT22;8808;52.478;13.378;2023-08-07T11:21:08;18.90;99.90
17381;DHT22;8808;52.478;13.378;2023-08-07T11:23:38;18.60;99.90
17381;DHT22;8808;52.478;13.378;2023-08-07T11:26:05;18.80;99.90
17381;DHT22;8808;52.478;13.378;2023-08-07T11:28:32;18.80;99.90
17381;DHT22;8808;52.478;13.378;2023-08-07T11:31:00;18.80;99.90
17381;DHT22;8808;52.478;13.378;2023-08-07T11:33:28;18.70;99.90
17381;DHT22;8808;52.478;13.378;2023-08-07T11:35:56;18.60;99.90
17381;DHT22;8808;52.478;13.378;2023-08-07T11:38:30;18.80;99.90
17381;DHT22;8808;52.478;13.378;2023-08-07T11:41:00;18.70;99.90
17381;DHT22;8808;52.478;13.378;2023-08-07T11:43:28;18.50;99.90
17381;DHT22;8808;52.478;13.378;2023-08-07T11:45:56;18.40;99.90
17381;DHT22;8808;52.478;13.378;2023-08-07T11:48:24;18.50;99.90
17381;DHT22;8808;52.478;13.378;2023-08-07T11:50:52;18.40;99.90
17381;DHT22;8808;52.478;13.378;2023-08-07T11:53:20;18.60;99.90
17381;DHT22;8808;52.478;13.378;2023-08-07T11:55:51;18.70;99.90
17381;DHT22;8808;52.478;13.378;2023-08-07T11:58:20;18.70;99.90
17381;DHT22;8808;52.478;13.378;2023-08-07T12:00:47;18.90;99.90
17381;DHT22;8808;52.478;13.378;2023-08-07T12:03:27;19.00;99.90
17381;DHT22;8808;52.478;13.378;2023-08-07T12:05:55;18.90;99.90
17381;DHT22;8808;52.478;13.378;2023-08-07T12:08:23;19.00;99.90
17381;DHT22;8808;52.478;13.378;2023-08-07T12:10:50;19.10;99.90
17381;DHT22;8808;52.478;13.378;2023-08-07T12:13:24;19.10;99.90
17381;DHT22;8808;52.478;13.378;2023-08-07T12:15:54;19.10;99.90
17381;DHT22;8808;52.478;13.378;2023-08-07T12:18:21;19.20;99.90
17381;DHT22;8808;52.478;13.378;2023-08-07T12:20:49;19.30;99.90
17381;DHT22;8808;52.478;13.378;2023-08-07T12:23:18;19.30;99.90
17381;DHT22;8808;52.478;13.378;2023-08-07T12:25:46;19.20;99.90
17381;DHT22;8808;52.478;13.378;2023-08-07T12:28:15;19.30;99.90
17381;DHT22;8808;52.478;13.378;2023-08-07T12:30:45;19.10;99.90
17381;DHT22;8808;52.478;13.378;2023-08-07T12:33:13;19.00;99.90
17381;DHT22;8808;52.478;13.378;2023-08-07T12:35:41;19.00;99.90
17381;DHT22;8808;52.478;13.378;2023-08-07T12:38:08;18.90;99.90
17381;DHT22;8808;52.478;13.378;2023-08-07T12:40:36;18.90;99.90
17381;DHT22;8808;52.478;13.378;2023-08-07T12:43:02;18.90;99.90
17381;DHT22;8808;52.478;13.378;2023-08-07T12:45:30;18.90;99.90
17381;DHT22;8808;52.478;13.378;2023-08-07T12:47:58;19.20;99.90
17381;DHT22;8808;52.478;13.378;2023-08-07T12:50:25;19.20;99.90
17381;DHT22;8808;52.478;13.378;2023-08-07T12:52:52;19.20;99.90
17381;DHT22;8808;52.478;13.378;2023-08-07T12:55:19;19.40;99.90
17381;DHT22;8808;52.478;13.378;2023-08-07T12:57:46;19.30;99.90
17381;DHT22;8808;52.478;13.378;2023-08-07T13:00:15;19.40;99.90
17381;DHT22;8808;52.478;13.378;2023-08-07T13:02:44;19.30;99.90
17381;DHT22;8808;52.478;13.378;2023-08-07T13:05:14;19.00;99.90
17381;DHT22;8808;52.478;13.378;2023-08-07T13:10:11;17.90;99.90
17381;DHT22;8808;52.478;13.378;2023-08-07T13:12:40;17.80;99.90
17381;DHT22;8808;52.478;13.378;2023-08-07T13:15:10;17.90;99.90
17381;DHT22;8808;52.478;13.378;2023-08-07T13:17:38;18.10;99.90
17381;DHT22;8808;52.478;13.378;2023-08-07T13:20:06;18.20;99.90
17381;DHT22;8808;52.478;13.378;2023-08-07T13:22:35;18.50;99.90
17381;DHT22;8808;52.478;13.378;2023-08-07T13:25:02;18.60;99.90
17381;DHT22;8808;52.478;13.378;2023-08-07T13:27:29;18.60;99.90
17381;DHT22;8808;52.478;13.378;2023-08-07T13:29:56;18.50;99.90
17381;DHT22;8808;52.478;13.378;2023-08-07T13:32:24;18.40;99.90
17381;DHT22;8808;52.478;13.378;2023-08-07T13:34:51;18.40;99.90
17381;DHT22;8808;52.478;13.378;2023-08-07T13:37:18;18.50;99.90
17381;DHT22;8808;52.478;13.378;2023-08-07T13:39:46;18.70;99.90
17381;DHT22;8808;52.478;13.378;2023-08-07T13:42:16;18.60;99.90
17381;DHT22;8808;52.478;13.378;2023-08-07T13:44:43;18.60;99.90
17381;DHT22;8808;52.478;13.378;2023-08-07T13:47:10;18.50;99.90
17381;DHT22;8808;52.478;13.378;2023-08-07T13:49:38;18.60;99.90
17381;DHT22;8808;52.478;13.378;2023-08-07T13:52:06;18.80;99.90
17381;DHT22;8808;52.478;13.378;2023-08-07T13:54:33;19.10;99.90
17381;DHT22;8808;52.478;13.378;2023-08-07T13:57:01;19.10;99.90
17381;DHT22;8808;52.478;13.378;2023-08-07T13:59:28;18.90;99.90
17381;DHT22;8808;52.478;13.378;2023-08-07T14:01:55;19.10;99.90
17381;DHT22;8808;52.478;13.378;2023-08-07T14:04:22;19.20;99.90
17381;DHT22;8808;52.478;13.378;2023-08-07T14:06:49;18.90;99.90
17381;DHT22;8808;52.478;13.378;2023-08-07T14:09:16;19.00;99.90
17381;DHT22;8808;52.478;13.378;2023-08-07T14:11:44;19.10;99.90
17381;DHT22;8808;52.478;13.378;2023-08-07T14:14:12;19.00;99.90
17381;DHT22;8808;52.478;13.378;2023-08-07T14:16:39;19.00;99.90
17381;DHT22;8808;52.478;13.378;2023-08-07T14:19:06;19.00;99.90
17381;DHT22;8808;52.478;13.378;2023-08-07T14:21:33;18.90;99.90
17381;DHT22;8808;52.478;13.378;2023-08-07T14:24:00;19.10;99.90
17381;DHT22;8808;52.478;13.378;2023-08-07T14:26:27;19.40;99.90
17381;DHT22;8808;52.478;13.378;2023-08-07T14:28:54;19.60;99.90
17381;DHT22;8808;52.478;13.378;2023-08-07T14:31:22;19.80;99.90
17381;DHT22;8808;52.478;13.378;2023-08-07T14:33:49;19.30;99.90
17381;DHT22;8808;52.478;13.378;2023-08-07T14:36:16;19.20;99.90
17381;DHT22;8808;52.478;13.378;2023-08-07T14:38:43;19.20;99.90
17381;DHT22;8808;52.478;13.378;2023-08-07T14:41:10;19.10;99.90
17381;DHT22;8808;52.478;13.378;2023-08-07T14:43:37;18.90;99.90
17381;DHT22;8808;52.478;13.378;2023-08-07T14:46:04;19.20;99.90
17381;DHT22;8808;52.478;13.378;2023-08-07T14:48:32;19.10;99.90
17381;DHT22;8808;52.478;13.378;2023-08-07T14:50:59;18.90;99.90
17381;DHT22;8808;52.478;13.378;2023-08-07T14:53:27;19.20;99.90
17381;DHT22;8808;52.478;13.378;2023-08-07T14:55:54;19.10;99.90
17381;DHT22;8808;52.478;13.378;2023-08-07T14:58:21;19.20;99.90
17381;DHT22;8808;52.478;13.378;2023-08-07T15:00:48;19.00;99.90
17381;DHT22;8808;52.478;13.378;2023-08-07T15:03:16;18.90;99.90
17381;DHT22;8808;52.478;13.378;2023-08-07T15:05:44;18.90;99.90
17381;DHT22;8808;52.478;13.378;2023-08-07T15:08:11;19.10;99.90
17381;DHT22;8808;52.478;13.378;2023-08-07T15:10:40;19.00;99.90
17381;DHT22;8808;52.478;13.378;2023-08-07T15:13:07;19.00;99.90
17381;DHT22;8808;52.478;13.378;2023-08-07T15:15:33;19.20;99.90
17381;DHT22;8808;52.478;13.378;2023-08-07T15:18:01;20.00;99.90
17381;DHT22;8808;52.478;13.378;2023-08-07T15:20:29;19.50;99.90
17381;DHT22;8808;52.478;13.378;2023-08-07T15:22:57;19.30;99.90
17381;DHT22;8808;52.478;13.378;2023-08-07T15:25:24;19.40;99.90
17381;DHT22;8808;52.478;13.378;2023-08-07T15:27:51;19.50;99.90
17381;DHT22;8808;52.478;13.378;2023-08-07T15:30:20;19.50;99.90
17381;DHT22;8808;52.478;13.378;2023-08-07T15:32:47;19.20;99.90
17381;DHT22;8808;52.478;13.378;2023-08-07T15:35:14;19.20;99.90
17381;DHT22;8808;52.478;13.378;2023-08-07T15:37:41;19.10;99.90
17381;DHT22;8808;52.478;13.378;2023-08-07T15:40:10;19.10;99.90
17381;DHT22;8808;52.478;13.378;2023-08-07T15:42:37;19.20;99.90
17381;DHT22;8808;52.478;13.378;2023-08-07T15:45:06;19.30;99.90
17381;DHT22;8808;52.478;13.378;2023-08-07T15:47:33;19.30;99.90
17381;DHT22;8808;52.478;13.378;2023-08-07T15:50:00;19.70;99.90
17381;DHT22;8808;52.478;13.378;2023-08-07T15:52:27;19.30;99.90
17381;DHT22;8808;52.478;13.378;2023-08-07T15:54:54;19.20;99.90
17381;DHT22;8808;52.478;13.378;2023-08-07T15:57:22;19.30;99.90
17381;DHT22;8808;52.478;13.378;2023-08-07T15:59:50;19.40;99.90
17381;DHT22;8808;52.478;13.378;2023-08-07T16:02:17;19.10;99.90
17381;DHT22;8808;52.478;13.378;2023-08-07T16:04:44;18.90;99.90
17381;DHT22;8808;52.478;13.378;2023-08-07T16:07:10;18.90;99.90
17381;DHT22;8808;52.478;13.378;2023-08-07T16:09:37;18.90;99.90
17381;DHT22;8808;52.478;13.378;2023-08-07T16:12:05;18.90;99.90
17381;DHT22;8808;52.478;13.378;2023-08-07T16:14:33;19.00;99.90
17381;DHT22;8808;52.478;13.378;2023-08-07T16:17:00;18.90;99.90
17381;DHT22;8808;52.478;13.378;2023-08-07T16:19:28;18.90;99.90
17381;DHT22;8808;52.478;13.378;2023-08-07T16:21:54;18.80;99.90
17381;DHT22;8808;52.478;13.378;2023-08-07T16:24:21;18.80;99.90
17381;DHT22;8808;52.478;13.378;2023-08-07T16:26:48;19.00;99.90
17381;DHT22;8808;52.478;13.378;2023-08-07T16:29:15;19.10;99.90
17381;DHT22;8808;52.478;13.378;2023-08-07T16:31:44;19.10;99.90
17381;DHT22;8808;52.478;13.378;2023-08-07T16:34:11;19.00;99.90
17381;DHT22;8808;52.478;13.378;2023-08-07T16:36:38;18.80;99.90
17381;DHT22;8808;52.478;13.378;2023-08-07T16:39:05;18.90;99.90
17381;DHT22;8808;52.478;13.378;2023-08-07T16:41:31;18.90;99.90
17381;DHT22;8808;52.478;13.378;2023-08-07T16:43:59;18.90;99.90
17381;DHT22;8808;52.478;13.378;2023-08-07T16:46:25;19.00;99.90
17381;DHT22;8808;52.478;13.378;2023-08-07T16:48:54;18.80;99.90
17381;DHT22;8808;52.478;13.378;2023-08-07T16:51:21;18.70;99.90
17381;DHT22;8808;52.478;13.378;2023-08-07T16:53:48;18.70;99.90
17381;DHT22;8808;52.478;13.378;2023-08-07T16:56:15;18.80;99.90
17381;DHT22;8808;52.478;13.378;2023-08-07T16:58:41;18.90;99.90
17381;DHT22;8808;52.478;13.378;2023-08-07T17:01:10;18.60;99.90
17381;DHT22;8808;52.478;13.378;2023-08-07T17:03:37;18.60;99.90
17381;DHT22;8808;52.478;13.378;2023-08-07T17:06:05;18.70;99.90
17381;DHT22;8808;52.478;13.378;2023-08-07T17:08:32;18.60;99.90
17381;DHT22;8808;52.478;13.378;2023-08-07T17:11:00;18.80;99.90
17381;DHT22;8808;52.478;13.378;2023-08-07T17:13:26;18.70;99.90
17381;DHT22;8808;52.478;13.378;2023-08-07T17:15:53;18.50;99.90
17381;DHT22;8808;52.478;13.378;2023-08-07T17:18:20;18.50;99.90
17381;DHT22;8808;52.478;13.378;2023-08-07T17:20:47;18.50;99.90
17381;DHT22;8808;52.478;13.378;2023-08-07T17:23:15;18.40;99.90
17381;DHT22;8808;52.478;13.378;2023-08-07T17:25:42;18.40;99.90
17381;DHT22;8808;52.478;13.378;2023-08-07T17:28:09;18.40;99.90
17381;DHT22;8808;52.478;13.378;2023-08-07T17:30:36;18.30;99.90
17381;DHT22;8808;52.478;13.378;2023-08-07T17:33:04;18.20;99.90
17381;DHT22;8808;52.478;13.378;2023-08-07T17:35:31;18.30;99.90
17381;DHT22;8808;52.478;13.378;2023-08-07T17:37:59;18.30;99.90
17381;DHT22;8808;52.478;13.378;2023-08-07T17:40:28;18.30;99.90
17381;DHT22;8808;52.478;13.378;2023-08-07T17:42:55;18.30;99.90
17381;DHT22;8808;52.478;13.378;2023-08-07T17:45:22;18.30;99.90
17381;DHT22;8808;52.478;13.378;2023-08-07T17:47:49;18.20;99.90
17381;DHT22;8808;52.478;13.378;2023-08-07T17:50:16;18.20;99.90
17381;DHT22;8808;52.478;13.378;2023-08-07T17:52:43;18.20;99.90
17381;DHT22;8808;52.478;13.378;2023-08-07T17:55:10;18.40;99.90
17381;DHT22;8808;52.478;13.378;2023-08-07T17:57:39;18.50;99.90
17381;DHT22;8808;52.478;13.378;2023-08-07T18:00:07;18.10;99.90
17381;DHT22;8808;52.478;13.378;2023-08-07T18:02:35;18.20;99.90
17381;DHT22;8808;52.478;13.378;2023-08-07T18:05:02;18.00;99.90
17381;DHT22;8808;52.478;13.378;2023-08-07T18:07:29;17.90;99.90
17381;DHT22;8808;52.478;13.378;2023-08-07T18:09:57;18.30;99.90
17381;DHT22;8808;52.478;13.378;2023-08-07T18:12:24;18.00;99.90
17381;DHT22;8808;52.478;13.378;2023-08-07T18:14:52;17.80;99.90
17381;DHT22;8808;52.478;13.378;2023-08-07T18:17:22;17.80;99.90
17381;DHT22;8808;52.478;13.378;2023-08-07T18:19:50;17.80;99.90
17381;DHT22;8808;52.478;13.378;2023-08-07T18:22:17;17.80;99.90
17381;DHT22;8808;52.478;13.378;2023-08-07T18:24:44;17.70;99.90
17381;DHT22;8808;52.478;13.378;2023-08-07T18:27:11;17.60;99.90
17381;DHT22;8808;52.478;13.378;2023-08-07T18:29:38;17.60;99.90
17381;DHT22;8808;52.478;13.378;2023-08-07T18:32:07;17.60;99.90
17381;DHT22;8808;52.478;13.378;2023-08-07T18:34:35;17.60;99.90
17381;DHT22;8808;52.478;13.378;2023-08-07T18:37:02;17.60;99.90
17381;DHT22;8808;52.478;13.378;2023-08-07T18:39:29;17.50;99.90
17381;DHT22;8808;52.478;13.378;2023-08-07T18:41:56;17.60;99.90
17381;DHT22;8808;52.478;13.378;2023-08-07T18:44:23;17.50;99.90
17381;DHT22;8808;52.478;13.378;2023-08-07T18:46:50;17.70;99.90
17381;DHT22;8808;52.478;13.378;2023-08-07T18:49:18;17.50;99.90
17381;DHT22;8808;52.478;13.378;2023-08-07T18:51:46;17.50;99.90
17381;DHT22;8808;52.478;13.378;2023-08-07T18:54:13;17.50;99.90
17381;DHT22;8808;52.478;13.378;2023-08-07T18:56:40;17.50;99.90
17381;DHT22;8808;52.478;13.378;2023-08-07T18:59:07;17.40;99.90
17381;DHT22;8808;52.478;13.378;2023-08-07T19:01:34;17.40;99.90
17381;DHT22;8808;52.478;13.378;2023-08-07T19:04:01;17.40;99.90
17381;DHT22;8808;52.478;13.378;2023-08-07T19:06:29;17.40;99.90
17381;DHT22;8808;52.478;13.378;2023-08-07T19:08:57;17.50;99.90
17381;DHT22;8808;52.478;13.378;2023-08-07T19:11:23;17.40;99.90
17381;DHT22;8808;52.478;13.378;2023-08-07T19:13:51;17.30;99.90
17381;DHT22;8808;52.478;13.378;2023-08-07T19:16:18;17.30;99.90
17381;DHT22;8808;52.478;13.378;2023-08-07T19:18:47;17.30;99.90
17381;DHT22;8808;52.478;13.378;2023-08-07T19:21:14;17.30;99.90
17381;DHT22;8808;52.478;13.378;2023-08-07T19:23:45;17.30;99.90
17381;DHT22;8808;52.478;13.378;2023-08-07T19:26:12;17.20;99.90
17381;DHT22;8808;52.478;13.378;2023-08-07T19:28:39;17.20;99.90
17381;DHT22;8808;52.478;13.378;2023-08-07T19:31:06;17.10;99.90
17381;DHT22;8808;52.478;13.378;2023-08-07T19:33:33;17.30;99.90
17381;DHT22;8808;52.478;13.378;2023-08-07T19:36:00;17.00;99.90
17381;DHT22;8808;52.478;13.378;2023-08-07T19:38:27;16.90;99.90
17381;DHT22;8808;52.478;13.378;2023-08-07T19:40:56;16.80;99.90
17381;DHT22;8808;52.478;13.378;2023-08-07T19:43:24;16.90;99.90
17381;DHT22;8808;52.478;13.378;2023-08-07T19:45:51;16.80;99.90
17381;DHT22;8808;52.478;13.378;2023-08-07T19:48:18;16.80;99.90
17381;DHT22;8808;52.478;13.378;2023-08-07T19:50:45;16.70;99.90